createdAt,value
2017-03-01T00:00:26.283Z,44
2017-03-01T00:02:58.899Z,44.2
2017-03-01T00:05:31.554Z,44.2
2017-03-01T00:08:04.580Z,44.1
2017-03-01T00:10:37.072Z,44.2
2017-03-01T00:13:09.556Z,44
2017-03-01T00:15:42.041Z,44
2017-03-01T00:18:14.587Z,43.9
2017-03-01T00:20:47.183Z,44
2017-03-01T00:23:20.329Z,43.9
2017-03-01T00:25:53.000Z,43.9
2017-03-01T00:28:25.608Z,43.9
2017-03-01T00:30:58.074Z,43.9
2017-03-01T00:33:30.573Z,43.9
2017-03-01T00:36:03.057Z,43.9
2017-03-01T00:38:35.562Z,44
2017-03-01T00:41:08.063Z,44
2017-03-01T00:43:40.551Z,44
2017-03-01T00:46:13.109Z,44
2017-03-01T00:48:46.016Z,44
2017-03-01T00:51:18.500Z,44
2017-03-01T00:53:50.993Z,44
2017-03-01T00:56:23.482Z,44.1
2017-03-01T00:58:55.968Z,44
2017-03-01T01:01:28.461Z,44
2017-03-01T01:04:00.966Z,44
2017-03-01T01:06:33.981Z,44
2017-03-01T01:09:06.457Z,44
2017-03-01T01:11:38.968Z,43.9
2017-03-01T01:14:11.445Z,43.9
2017-03-01T01:16:44.461Z,43.7
2017-03-01T01:19:17.627Z,43.7
2017-03-01T01:21:50.387Z,43.7
2017-03-01T01:24:23.304Z,43.7
2017-03-01T01:26:56.026Z,43.6
2017-03-01T01:29:28.806Z,43.6
2017-03-01T01:32:01.653Z,43.6
2017-03-01T01:34:34.153Z,43.6
2017-03-01T01:37:06.950Z,43.6
2017-03-01T01:39:39.870Z,43.6
2017-03-01T01:42:12.361Z,43.6
2017-03-01T01:44:44.856Z,43.6
2017-03-01T01:47:17.759Z,43.6
2017-03-01T01:49:50.661Z,43.6
2017-03-01T01:52:23.150Z,43.6
2017-03-01T01:54:56.079Z,43.6
2017-03-01T01:57:28.559Z,43.6
2017-03-01T02:00:01.513Z,43.6
2017-03-01T02:02:34.862Z,43.6
2017-03-01T02:05:07.826Z,43.6
2017-03-01T02:07:40.338Z,43.6
2017-03-01T02:10:12.825Z,43.6
2017-03-01T02:12:45.733Z,43.7
2017-03-01T02:15:18.663Z,43.7
2017-03-01T02:17:51.174Z,43.7
2017-03-01T02:20:23.661Z,43.7
2017-03-01T02:22:56.135Z,43.7
2017-03-01T02:25:28.636Z,43.7
2017-03-01T02:28:01.553Z,43.7
2017-03-01T02:30:34.598Z,43.7
2017-03-01T02:33:07.098Z,43.7
2017-03-01T02:35:39.596Z,43.7
2017-03-01T02:38:12.077Z,43.7
2017-03-01T02:40:44.550Z,43.7
2017-03-01T02:43:17.039Z,43.7
2017-03-01T02:45:49.973Z,43.7
2017-03-01T02:48:23.001Z,43.7
2017-03-01T02:50:55.908Z,43.7
2017-03-01T02:53:28.407Z,43.7
2017-03-01T02:56:01.736Z,43.7
2017-03-01T02:58:34.235Z,43.7
2017-03-01T03:01:07.138Z,43.7
2017-03-01T03:03:40.061Z,43.7
2017-03-01T03:06:12.559Z,43.6
2017-03-01T03:08:45.565Z,43.7
2017-03-01T03:11:18.063Z,43.7
2017-03-01T03:13:51.115Z,43.7
2017-03-01T03:16:24.037Z,43.7
2017-03-01T03:18:56.839Z,43.7
2017-03-01T03:21:29.339Z,43.7
2017-03-01T03:24:01.862Z,43.7
2017-03-01T03:26:34.367Z,43.6
2017-03-01T03:29:06.854Z,43.7
2017-03-01T03:31:39.800Z,43.7
2017-03-01T03:34:12.288Z,43.7
2017-03-01T03:36:44.784Z,43.6
2017-03-01T03:39:17.280Z,43.7
2017-03-01T03:41:49.781Z,43.7
2017-03-01T03:44:22.470Z,43.7
2017-03-01T03:46:55.149Z,43.7
2017-03-01T03:49:27.982Z,43.6
2017-03-01T03:52:00.474Z,43.6
2017-03-01T03:54:32.948Z,43.6
2017-03-01T03:57:05.448Z,43.6
2017-03-01T03:59:39.410Z,43.7
2017-03-01T04:02:12.545Z,43.6
2017-03-01T04:04:45.026Z,43.6
2017-03-01T04:07:17.549Z,43.7
2017-03-01T04:09:50.469Z,43.6
2017-03-01T04:12:23.379Z,43.7
2017-03-01T04:14:55.876Z,43.6
2017-03-01T04:17:28.351Z,43.6
2017-03-01T04:20:00.853Z,43.6
2017-03-01T04:22:33.317Z,43.6
2017-03-01T04:25:05.812Z,43.6
2017-03-01T04:27:38.299Z,43.6
2017-03-01T04:30:10.802Z,43.6
2017-03-01T04:32:44.145Z,43.6
2017-03-01T04:35:17.066Z,43.5
2017-03-01T04:37:49.553Z,43.6
2017-03-01T04:40:22.062Z,43.6
2017-03-01T04:42:54.564Z,43.6
2017-03-01T04:45:27.481Z,43.6
2017-03-01T04:47:59.955Z,43.6
2017-03-01T04:50:32.461Z,43.6
2017-03-01T04:53:05.795Z,43.6
2017-03-01T04:55:38.300Z,43.5
2017-03-01T04:58:10.815Z,43.5
2017-03-01T05:00:43.285Z,43.6
2017-03-01T05:03:15.775Z,43.6
2017-03-01T05:05:48.273Z,43.5
2017-03-01T05:08:20.795Z,43.6
2017-03-01T05:10:53.275Z,43.6
2017-03-01T05:13:25.777Z,43.5
2017-03-01T05:15:58.261Z,43.6
2017-03-01T05:18:30.750Z,43.6
2017-03-01T05:21:03.235Z,43.6
2017-03-01T05:23:36.154Z,43.6
2017-03-01T05:26:08.690Z,43.6
2017-03-01T05:28:41.219Z,43.6
2017-03-01T05:31:13.704Z,43.6
2017-03-01T05:33:46.633Z,43.7
2017-03-01T05:36:19.135Z,43.7
2017-03-01T05:38:51.627Z,43.8
2017-03-01T05:41:24.738Z,43.8
2017-03-01T05:43:57.231Z,43.8
2017-03-01T05:46:29.720Z,43.8
2017-03-01T05:49:02.211Z,43.8
2017-03-01T05:51:35.577Z,43.8
2017-03-01T05:54:08.075Z,43.8
2017-03-01T05:56:40.981Z,43.8
2017-03-01T05:59:13.475Z,43.8
2017-03-01T06:01:45.965Z,43.9
2017-03-01T06:04:18.468Z,43.8
2017-03-01T06:06:50.974Z,43.9
2017-03-01T06:09:23.449Z,43.9
2017-03-01T06:11:56.381Z,43.9
2017-03-01T06:14:28.865Z,43.9
2017-03-01T06:17:02.217Z,43.9
2017-03-01T06:19:34.685Z,43.9
2017-03-01T06:22:07.246Z,44
2017-03-01T06:24:40.161Z,44
2017-03-01T06:27:12.666Z,44
2017-03-01T06:29:45.602Z,43.9
2017-03-01T06:32:18.508Z,44
2017-03-01T06:34:51.416Z,44
2017-03-01T06:37:23.930Z,44
2017-03-01T06:39:56.428Z,44
2017-03-01T06:42:28.915Z,44
2017-03-01T06:45:01.874Z,44
2017-03-01T06:47:34.391Z,44.1
2017-03-01T06:50:06.882Z,44
2017-03-01T06:52:39.798Z,44
2017-03-01T06:55:12.277Z,44
2017-03-01T06:57:44.785Z,44
2017-03-01T07:00:17.310Z,44
2017-03-01T07:02:49.778Z,44.1
2017-03-01T07:05:22.276Z,44.1
2017-03-01T07:07:54.801Z,44.1
2017-03-01T07:10:27.294Z,44.1
2017-03-01T07:12:59.801Z,44.1
2017-03-01T07:15:32.297Z,44.1
2017-03-01T07:18:05.230Z,44.1
2017-03-01T07:20:37.718Z,44.1
2017-03-01T07:23:10.272Z,44.1
2017-03-01T07:25:42.775Z,44.1
2017-03-01T07:28:15.292Z,44.1
2017-03-01T07:30:47.775Z,44.1
2017-03-01T07:33:20.298Z,44.1
2017-03-01T07:35:52.830Z,44.2
2017-03-01T07:38:25.948Z,44.2
2017-03-01T07:40:58.405Z,44.2
2017-03-01T07:43:30.929Z,44.2
2017-03-01T07:46:03.431Z,44.2
2017-03-01T07:48:35.917Z,44.1
2017-03-01T07:51:08.423Z,44.1
2017-03-01T07:53:40.909Z,44.1
2017-03-01T07:56:13.407Z,44.1
2017-03-01T07:58:46.335Z,44.1
2017-03-01T08:01:19.269Z,44.1
2017-03-01T08:03:51.750Z,44.1
2017-03-01T08:06:24.253Z,44.1
2017-03-01T08:08:57.191Z,44.1
2017-03-01T08:11:29.715Z,44.1
2017-03-01T08:14:02.183Z,44.1
2017-03-01T08:16:34.691Z,44.1
2017-03-01T08:19:07.184Z,44.1
2017-03-01T08:21:40.121Z,44.1
2017-03-01T08:24:12.610Z,44.1
2017-03-01T08:26:45.105Z,44.1
2017-03-01T08:29:17.610Z,44.1
2017-03-01T08:31:50.123Z,44
2017-03-01T08:34:22.609Z,44.1
2017-03-01T08:36:55.095Z,44
2017-03-01T08:39:27.584Z,44.1
2017-03-01T08:42:00.509Z,44.1
2017-03-01T08:44:33.010Z,44.1
2017-03-01T08:47:05.938Z,44.1
2017-03-01T08:49:38.428Z,44.1
2017-03-01T08:52:10.916Z,44
2017-03-01T08:54:43.837Z,44.2
2017-03-01T08:57:16.340Z,44.2
2017-03-01T08:59:48.821Z,44.1
2017-03-01T09:02:21.296Z,44
2017-03-01T09:04:53.998Z,44.1
2017-03-01T09:07:26.480Z,44.1
2017-03-01T09:09:58.972Z,44.1
2017-03-01T09:12:31.468Z,44.1
2017-03-01T09:15:03.950Z,44.1
2017-03-01T09:17:36.862Z,44.1
2017-03-01T09:20:09.350Z,44.1
2017-03-01T09:22:41.830Z,44
2017-03-01T09:25:14.351Z,44.1
2017-03-01T09:27:46.864Z,44
2017-03-01T09:30:19.343Z,44
2017-03-01T09:32:51.822Z,44
2017-03-01T09:35:24.296Z,44
2017-03-01T09:37:56.771Z,44
2017-03-01T09:40:29.270Z,44.1
2017-03-01T09:43:02.604Z,44
2017-03-01T09:45:35.507Z,44
2017-03-01T09:48:08.010Z,44
2017-03-01T09:50:40.519Z,44
2017-03-01T09:53:13.448Z,44.1
2017-03-01T09:55:45.932Z,44
2017-03-01T09:58:18.433Z,44
2017-03-01T10:00:50.960Z,44
2017-03-01T10:03:23.463Z,40.5
2017-03-01T10:05:55.944Z,38.9
2017-03-01T10:08:28.551Z,36.5
2017-03-01T10:11:01.042Z,36
2017-03-01T10:13:33.994Z,36.3
2017-03-01T10:16:06.532Z,37
2017-03-01T10:18:39.862Z,39.2
2017-03-01T10:21:12.357Z,40.6
2017-03-01T10:23:44.918Z,41.3
2017-03-01T10:26:17.416Z,41.6
2017-03-01T10:28:49.902Z,41.9
2017-03-01T10:31:22.434Z,42.1
2017-03-01T10:33:55.058Z,42.3
2017-03-01T10:36:27.545Z,42.6
2017-03-01T10:39:00.046Z,42.6
2017-03-01T10:41:32.525Z,42.7
2017-03-01T10:44:05.880Z,42.7
2017-03-01T10:46:38.398Z,42.8
2017-03-01T10:49:11.218Z,42.9
2017-03-01T10:51:44.132Z,43
2017-03-01T10:54:16.847Z,43.2
2017-03-01T10:56:49.355Z,43.1
2017-03-01T10:59:21.851Z,43
2017-03-01T11:01:54.346Z,43
2017-03-01T11:04:26.885Z,43
2017-03-01T11:06:59.835Z,43
2017-03-01T11:09:32.341Z,42.9
2017-03-01T11:12:04.839Z,42.9
2017-03-01T11:14:37.332Z,42.9
2017-03-01T11:17:09.804Z,43
2017-03-01T11:19:42.290Z,42.9
2017-03-01T11:22:14.830Z,42.9
2017-03-01T11:24:47.476Z,43
2017-03-01T11:27:19.962Z,43
2017-03-01T11:29:52.572Z,43
2017-03-01T11:32:25.501Z,43
2017-03-01T11:34:58.126Z,43
2017-03-01T11:37:30.637Z,43
2017-03-01T11:40:03.677Z,43
2017-03-01T11:42:36.592Z,43
2017-03-01T11:45:09.113Z,43
2017-03-01T11:47:41.576Z,43
2017-03-01T11:50:14.094Z,43
2017-03-01T11:52:46.618Z,43
2017-03-01T11:55:19.135Z,43
2017-03-01T11:57:51.623Z,43
2017-03-01T12:00:24.099Z,43
2017-03-01T12:02:56.581Z,42.9
2017-03-01T12:05:29.090Z,43.1
2017-03-01T12:08:01.557Z,43.1
2017-03-01T12:10:34.046Z,40.1
2017-03-01T12:13:06.535Z,37
2017-03-01T12:15:39.910Z,37.8
2017-03-01T12:18:12.475Z,40.5
2017-03-01T12:20:46.127Z,41.3
2017-03-01T12:23:18.749Z,41.4
2017-03-01T12:25:51.676Z,41.6
2017-03-01T12:28:24.624Z,41.8
2017-03-01T12:30:57.127Z,42.1
2017-03-01T12:33:29.725Z,42.1
2017-03-01T12:36:02.663Z,42.3
2017-03-01T12:38:35.323Z,42.3
2017-03-01T12:41:08.257Z,42.3
2017-03-01T12:43:40.770Z,42.4
2017-03-01T12:46:13.267Z,42.4
2017-03-01T12:48:45.756Z,42.5
2017-03-01T12:51:18.376Z,42.5
2017-03-01T12:53:51.295Z,42.6
2017-03-01T12:56:23.777Z,42.6
2017-03-01T12:58:56.290Z,42.6
2017-03-01T13:01:29.206Z,42.7
2017-03-01T13:04:01.699Z,42.7
2017-03-01T13:06:34.186Z,42.8
2017-03-01T13:09:07.022Z,42.8
2017-03-01T13:11:39.536Z,42.9
2017-03-01T13:14:12.039Z,42.9
2017-03-01T13:16:44.529Z,43
2017-03-01T13:19:17.037Z,43
2017-03-01T13:21:49.537Z,43.1
2017-03-01T13:24:22.023Z,43.1
2017-03-01T13:26:54.536Z,43.1
2017-03-01T13:29:27.020Z,43.2
2017-03-01T13:31:59.566Z,43.2
2017-03-01T13:34:32.481Z,43.3
2017-03-01T13:37:04.978Z,43.3
2017-03-01T13:39:37.477Z,43.3
2017-03-01T13:42:09.964Z,42.1
2017-03-01T13:44:42.481Z,39.5
2017-03-01T13:47:14.958Z,41.9
2017-03-01T13:49:47.482Z,42.3
2017-03-01T13:52:20.371Z,42.6
2017-03-01T13:54:52.879Z,42.3
2017-03-01T13:57:25.391Z,40
2017-03-01T13:59:58.330Z,40.4
2017-03-01T14:02:30.815Z,41.7
2017-03-01T14:05:04.345Z,42.2
2017-03-01T14:07:37.494Z,42.4
2017-03-01T14:10:10.449Z,42.6
2017-03-01T14:12:42.974Z,42.7
2017-03-01T14:15:15.564Z,42.9
2017-03-01T14:17:48.302Z,43
2017-03-01T14:20:21.204Z,43.1
2017-03-01T14:22:54.374Z,43.2
2017-03-01T14:25:27.315Z,43.2
2017-03-01T14:27:59.798Z,43.3
2017-03-01T14:30:32.283Z,43.3
2017-03-01T14:33:04.762Z,43.4
2017-03-01T14:35:37.260Z,43.4
2017-03-01T14:38:09.760Z,43.4
2017-03-01T14:40:42.283Z,43.5
2017-03-01T14:43:14.761Z,43.5
2017-03-01T14:45:47.268Z,43.6
2017-03-01T14:48:19.767Z,43.6
2017-03-01T14:50:53.300Z,43.7
2017-03-01T14:53:25.816Z,43.7
2017-03-01T14:55:58.304Z,43.7
2017-03-01T14:58:30.789Z,43.8
2017-03-01T15:01:03.313Z,43.8
2017-03-01T15:03:35.817Z,43.8
2017-03-01T15:06:08.333Z,43.8
2017-03-01T15:08:41.271Z,43.8
2017-03-01T15:11:14.616Z,43.8
2017-03-01T15:13:47.971Z,43.5
2017-03-01T15:16:20.482Z,42.8
2017-03-01T15:18:52.977Z,42.1
2017-03-01T15:21:25.478Z,42.3
2017-03-01T15:23:57.974Z,42.7
2017-03-01T15:26:30.485Z,42.8
2017-03-01T15:29:02.975Z,43
2017-03-01T15:31:35.481Z,43.1
2017-03-01T15:34:07.969Z,43.3
2017-03-01T15:36:40.487Z,43.3
2017-03-01T15:39:12.956Z,43.5
2017-03-01T15:41:45.449Z,43.6
2017-03-01T15:44:17.954Z,43.6
2017-03-01T15:46:50.667Z,43.7
2017-03-01T15:49:23.145Z,43.7
2017-03-01T15:51:55.647Z,43.6
2017-03-01T15:54:29.003Z,43.6
2017-03-01T15:57:02.083Z,43.6
2017-03-01T15:59:34.574Z,43.6
2017-03-01T16:02:07.153Z,43.5
2017-03-01T16:04:40.089Z,43.4
2017-03-01T16:07:12.997Z,43.3
2017-03-01T16:09:45.652Z,43.3
2017-03-01T16:12:18.146Z,43.2
2017-03-01T16:14:50.632Z,43.3
2017-03-01T16:17:23.561Z,43.2
2017-03-01T16:19:56.055Z,43.2
2017-03-01T16:22:28.526Z,43.2
2017-03-01T16:25:01.022Z,43.2
2017-03-01T16:27:33.518Z,43.2
2017-03-01T16:30:06.004Z,43.1
2017-03-01T16:32:38.512Z,43.2
2017-03-01T16:35:11.437Z,43.2
2017-03-01T16:37:43.915Z,43.2
2017-03-01T16:40:16.406Z,43.2
2017-03-01T16:42:49.317Z,43.2
2017-03-01T16:45:21.801Z,43.2
2017-03-01T16:47:54.282Z,43.2
2017-03-01T16:50:26.776Z,43.3
2017-03-01T16:52:59.267Z,43.3
2017-03-01T16:55:31.771Z,43.4
2017-03-01T16:58:04.695Z,43.5
2017-03-01T17:00:37.205Z,43.5
2017-03-01T17:03:09.718Z,43.5
2017-03-01T17:05:42.227Z,43.6
2017-03-01T17:08:15.131Z,43.7
2017-03-01T17:10:47.640Z,44.1
2017-03-01T17:13:20.152Z,44
2017-03-01T17:15:52.666Z,44.1
2017-03-01T17:18:25.165Z,44.1
2017-03-01T17:20:57.650Z,44
2017-03-01T17:23:30.134Z,44.1
2017-03-01T17:26:03.040Z,44.1
2017-03-01T17:28:35.517Z,44.1
2017-03-01T17:31:08.032Z,44.1
2017-03-01T17:33:40.927Z,44.2
2017-03-01T17:36:13.421Z,44.2
2017-03-01T17:38:45.900Z,44.2
2017-03-01T17:41:18.849Z,44.3
2017-03-01T17:43:51.364Z,44.4
2017-03-01T17:46:23.855Z,44.4
2017-03-01T17:48:56.770Z,44.4
2017-03-01T17:51:29.673Z,44.4
2017-03-01T17:54:02.594Z,44.4
2017-03-01T17:56:35.088Z,44.4
2017-03-01T17:59:07.574Z,44.4
2017-03-01T18:01:40.682Z,44.4
2017-03-01T18:04:13.162Z,44.4
2017-03-01T18:06:45.683Z,44.4
2017-03-01T18:09:18.377Z,44.4
2017-03-01T18:11:51.089Z,44.4
2017-03-01T18:14:23.991Z,44.4
2017-03-01T18:16:56.489Z,44.3
2017-03-01T18:19:28.989Z,44.3
2017-03-01T18:22:02.322Z,44.3
2017-03-01T18:24:34.820Z,44.3
2017-03-01T18:27:07.339Z,44.2
2017-03-01T18:29:40.257Z,44.2
2017-03-01T18:32:12.766Z,44.2
2017-03-01T18:34:45.248Z,44.2
2017-03-01T18:37:17.740Z,44.1
2017-03-01T18:39:50.551Z,44.1
2017-03-01T18:42:23.033Z,44.1
2017-03-01T18:44:55.536Z,44.1
2017-03-01T18:47:28.011Z,44.1
2017-03-01T18:50:00.904Z,44.1
2017-03-01T18:52:33.394Z,44.1
2017-03-01T18:55:06.290Z,44.1
2017-03-01T18:57:38.784Z,44.1
2017-03-01T19:00:11.265Z,44.1
2017-03-01T19:02:43.770Z,44.1
2017-03-01T19:05:16.684Z,44.1
2017-03-01T19:07:49.183Z,44.1
2017-03-01T19:10:21.694Z,44
2017-03-01T19:12:54.169Z,44.1
2017-03-01T19:15:26.675Z,44.1
2017-03-01T19:17:59.160Z,44.2
2017-03-01T19:20:31.659Z,44.2
2017-03-01T19:23:04.156Z,44.2
2017-03-01T19:25:36.710Z,44.2
2017-03-01T19:28:09.641Z,44.3
2017-03-01T19:30:42.149Z,44.3
2017-03-01T19:33:14.650Z,44.4
2017-03-01T19:35:47.281Z,44.4
2017-03-01T19:38:19.779Z,44.4
2017-03-01T19:40:52.284Z,44.5
2017-03-01T19:43:24.784Z,44.5
2017-03-01T19:45:57.288Z,44.6
2017-03-01T19:48:30.194Z,44.5
2017-03-01T19:51:03.122Z,44.4
2017-03-01T19:53:35.642Z,44.4
2017-03-01T19:56:08.157Z,44.3
2017-03-01T19:58:41.082Z,44.3
2017-03-01T20:01:13.581Z,44.2
2017-03-01T20:03:46.496Z,44.2
2017-03-01T20:06:19.014Z,44.2
2017-03-01T20:08:51.512Z,44.2
2017-03-01T20:11:24.435Z,44.2
2017-03-01T20:13:57.154Z,44.1
2017-03-01T20:16:29.649Z,44.2
2017-03-01T20:19:02.986Z,44.1
2017-03-01T20:21:35.493Z,44.1
2017-03-01T20:24:07.968Z,44.1
2017-03-01T20:26:40.479Z,44.1
2017-03-01T20:29:13.393Z,44.1
2017-03-01T20:31:45.892Z,44.1
2017-03-01T20:34:18.364Z,44
2017-03-01T20:36:51.293Z,44.1
2017-03-01T20:39:24.205Z,44
2017-03-01T20:41:57.127Z,44.1
2017-03-01T20:44:29.616Z,44
2017-03-01T20:47:02.569Z,44
2017-03-01T20:49:35.060Z,44
2017-03-01T20:52:07.568Z,44
2017-03-01T20:54:40.099Z,44
2017-03-01T20:57:13.027Z,44
2017-03-01T20:59:45.517Z,44
2017-03-01T21:02:18.029Z,44
2017-03-01T21:04:50.527Z,44
2017-03-01T21:07:23.045Z,44
2017-03-01T21:09:55.551Z,44
2017-03-01T21:12:28.070Z,44
2017-03-01T21:15:00.570Z,44
2017-03-01T21:17:33.081Z,44
2017-03-01T21:20:05.976Z,44
2017-03-01T21:22:38.467Z,43.9
2017-03-01T21:25:10.975Z,43.9
2017-03-01T21:27:43.452Z,43.9
2017-03-01T21:30:15.937Z,43.9
2017-03-01T21:32:48.665Z,43.9
2017-03-01T21:35:21.625Z,43.9
2017-03-01T21:37:54.132Z,43.9
2017-03-01T21:40:26.642Z,43.9
2017-03-01T21:42:59.149Z,43.9
2017-03-01T21:45:32.078Z,43.9
2017-03-01T21:48:04.582Z,43.9
2017-03-01T21:50:37.059Z,43.9
2017-03-01T21:53:09.542Z,43.9
2017-03-01T21:55:42.028Z,43.9
2017-03-01T21:58:14.964Z,43.9
2017-03-01T22:00:47.484Z,43.9
2017-03-01T22:03:19.977Z,43.9
2017-03-01T22:05:52.455Z,43.8
2017-03-01T22:08:24.950Z,43.8
2017-03-01T22:10:57.437Z,43.8
2017-03-01T22:13:30.134Z,43.8
2017-03-01T22:16:02.616Z,43.8
2017-03-01T22:18:35.103Z,43.8
2017-03-01T22:21:08.037Z,43.8
2017-03-01T22:23:40.530Z,43.8
2017-03-01T22:26:13.020Z,43.8
2017-03-01T22:28:45.505Z,43.8
2017-03-01T22:31:18.430Z,43.8
2017-03-01T22:33:51.335Z,43.8
2017-03-01T22:36:24.298Z,43.8
2017-03-01T22:38:56.823Z,43.8
2017-03-01T22:41:29.316Z,43.8
2017-03-01T22:44:01.822Z,43.8
2017-03-01T22:46:34.297Z,43.8
2017-03-01T22:49:06.779Z,43.8
2017-03-01T22:51:40.150Z,43.7
2017-03-01T22:54:13.061Z,43.8
2017-03-01T22:56:45.533Z,43.8
2017-03-01T22:59:18.039Z,43.8
2017-03-01T23:01:51.365Z,43.8
2017-03-01T23:04:24.264Z,43.8
2017-03-01T23:06:57.176Z,43.8
2017-03-01T23:09:30.108Z,43.8
2017-03-01T23:12:02.635Z,43.8
2017-03-01T23:14:35.552Z,43.8
2017-03-01T23:17:08.053Z,43.8
2017-03-01T23:19:40.782Z,43.8
2017-03-01T23:22:13.267Z,43.8
2017-03-01T23:24:45.771Z,43.8
2017-03-01T23:27:18.279Z,43.8
2017-03-01T23:29:51.182Z,43.7
2017-03-01T23:32:24.090Z,43.7
2017-03-01T23:34:57.025Z,43.7
2017-03-01T23:37:29.562Z,43.7
2017-03-01T23:40:02.478Z,43.7
2017-03-01T23:42:35.394Z,43.7
2017-03-01T23:45:07.890Z,43.7
2017-03-01T23:47:40.394Z,43.7
2017-03-01T23:50:12.877Z,43.7
2017-03-01T23:52:45.352Z,43.6
2017-03-01T23:55:18.264Z,43.7
2017-03-01T23:57:51.190Z,43.7
